Time;durP1;ratioP1;P1;durP2;ratioP2;P2;SDS_P1;SDS_P2;PMS_P1;PMS_P2;Temp;Humidity;BMP_temperature;BMP_pressure;BME280_temperature;BME280_humidity;BME280_pressure;Samples;Min_cycle;Max_cycle;Signal;HPM_P1;HPM_P2
2023/08/06 00:00:25;;;;;;;13.70;3.00;;;13.30;99.90;;;;;;4862531;29;20401;-50
2023/08/06 00:02:51;;;;;;;5.93;2.20;;;13.20;99.90;;;;;;4862096;29;20046;-54
2023/08/06 00:05:20;;;;;;;4.43;1.88;;;13.30;99.90;;;;;;4862289;29;20087;-54
2023/08/06 00:07:47;;;;;;;3.10;1.92;;;13.30;99.90;;;;;;4861857;29;20037;-53
2023/08/06 00:10:14;;;;;;;4.72;2.20;;;13.20;99.90;;;;;;4862363;29;20038;-57
2023/08/06 00:12:41;;;;;;;6.75;2.05;;;13.20;99.90;;;;;;4876149;29;20513;-53
2023/08/06 00:15:08;;;;;;;6.45;2.08;;;13.20;99.90;;;;;;4862318;29;20128;-50
2023/08/06 00:17:34;;;;;;;3.75;2.00;;;13.20;99.90;;;;;;4861472;29;20056;-56
2023/08/06 00:20:05;;;;;;;3.55;1.98;;;13.20;99.90;;;;;;4861833;29;20055;-58
2023/08/06 00:22:32;;;;;;;7.03;2.58;;;13.20;99.90;;;;;;4861263;29;20057;-53
2023/08/06 00:24:59;;;;;;;6.18;2.20;;;13.20;99.90;;;;;;4861626;29;20061;-58
2023/08/06 00:27:26;;;;;;;6.10;2.00;;;13.20;99.90;;;;;;4861151;29;20500;-51
2023/08/06 00:29:53;;;;;;;7.78;2.28;;;13.10;99.90;;;;;;4861787;29;20050;-54
2023/08/06 00:32:19;;;;;;;8.10;1.85;;;13.10;99.90;;;;;;4860004;29;20084;-50
2023/08/06 00:34:49;;;;;;;6.72;2.25;;;13.10;99.90;;;;;;4875666;29;20068;-56
2023/08/06 00:37:16;;;;;;;5.60;2.00;;;13.10;99.90;;;;;;4861415;29;20054;-50
2023/08/06 00:39:43;;;;;;;4.47;2.40;;;13.10;99.90;;;;;;4861318;29;20088;-53
2023/08/06 00:42:10;;;;;;;5.03;2.25;;;13.10;99.90;;;;;;4861224;29;20045;-52
2023/08/06 00:44:37;;;;;;;3.60;1.85;;;13.10;99.90;;;;;;4860496;29;20541;-50
2023/08/06 00:47:04;;;;;;;4.35;1.80;;;13.10;99.90;;;;;;4859819;29;20046;-52
2023/08/06 00:49:31;;;;;;;5.82;2.10;;;13.10;99.90;;;;;;4875154;29;20476;-52
2023/08/06 00:52:00;;;;;;;4.45;1.90;;;13.20;99.90;;;;;;4861572;29;20136;-51
2023/08/06 00:54:27;;;;;;;4.13;1.92;;;13.10;99.90;;;;;;4861530;29;20068;-56
2023/08/06 00:56:54;;;;;;;5.22;1.75;;;13.10;99.90;;;;;;4861134;29;20077;-52
2023/08/06 00:59:21;;;;;;;4.97;2.10;;;13.10;99.90;;;;;;4860847;29;20128;-52
2023/08/06 01:01:50;;;;;;;4.78;1.95;;;13.00;99.90;;;;;;4860964;29;20053;-55
2023/08/06 01:04:17;;;;;;;6.20;2.10;;;13.00;99.90;;;;;;4860950;29;20053;-51
2023/08/06 01:06:44;;;;;;;6.50;2.35;;;13.00;99.90;;;;;;4875288;29;20509;-52
2023/08/06 01:09:10;;;;;;;7.60;2.20;;;12.90;99.90;;;;;;4875356;29;20105;-55
2023/08/06 01:11:37;;;;;;;7.25;2.00;;;13.00;99.90;;;;;;4875118;29;20050;-52
2023/08/06 01:14:04;;;;;;;4.82;2.45;;;12.90;99.90;;;;;;4859593;29;20056;-55
2023/08/06 01:16:31;;;;;;;8.77;2.30;;;12.90;99.90;;;;;;4861125;29;20136;-50
2023/08/06 01:18:58;;;;;;;7.45;2.42;;;12.90;99.90;;;;;;4860579;29;20109;-50
2023/08/06 01:21:24;;;;;;;5.78;2.53;;;12.80;99.90;;;;;;4859573;29;20042;-54
2023/08/06 01:23:51;;;;;;;4.45;2.30;;;12.80;99.90;;;;;;4861267;29;20060;-51
2023/08/06 01:26:18;;;;;;;4.70;2.42;;;12.80;99.90;;;;;;4860695;29;20361;-53
2023/08/06 01:28:45;;;;;;;7.55;2.67;;;12.80;99.90;;;;;;4860687;29;20038;-48
2023/08/06 01:31:12;;;;;;;6.32;2.95;;;12.70;99.90;;;;;;4859676;29;20034;-54
2023/08/06 01:33:39;;;;;;;10.25;3.80;;;12.70;99.90;;;;;;4859766;29;20056;-51
2023/08/06 01:36:06;;;;;;;6.22;2.67;;;12.70;99.90;;;;;;4875173;29;20098;-54
2023/08/06 01:38:32;;;;;;;7.45;2.72;;;12.70;99.90;;;;;;4860777;29;20133;-56
2023/08/06 01:40:59;;;;;;;5.03;3.05;;;12.70;99.90;;;;;;4859452;29;20075;-55
2023/08/06 01:43:26;;;;;;;8.18;2.55;;;12.70;99.90;;;;;;4874571;29;20068;-57
2023/08/06 01:45:53;;;;;;;6.25;2.80;;;12.70;99.90;;;;;;4860372;29;20102;-49
2023/08/06 01:48:19;;;;;;;5.38;2.90;;;12.60;99.90;;;;;;4860226;29;20069;-52
2023/08/06 01:50:46;;;;;;;9.07;3.03;;;12.60;99.90;;;;;;4859100;29;20092;-50
2023/08/06 01:53:13;;;;;;;7.05;2.75;;;12.60;99.90;;;;;;4859438;29;20053;-54
2023/08/06 01:55:40;;;;;;;8.85;3.20;;;12.60;99.90;;;;;;4860401;29;20050;-53
2023/08/06 01:58:07;;;;;;;6.85;3.33;;;12.60;99.90;;;;;;4874409;29;20064;-51
2023/08/06 02:00:33;;;;;;;7.18;2.97;;;12.50;99.90;;;;;;4860469;29;20051;-51
2023/08/06 02:03:00;;;;;;;6.55;2.97;;;12.50;99.90;;;;;;4858906;29;20081;-49
2023/08/06 02:05:27;;;;;;;7.38;3.60;;;12.60;99.90;;;;;;4860548;29;20140;-48
2023/08/06 02:07:54;;;;;;;7.00;3.10;;;12.50;99.90;;;;;;4860719;29;20347;-50
2023/08/06 02:10:21;;;;;;;5.68;3.00;;;12.50;99.90;;;;;;4859120;29;20049;-51
2023/08/06 02:12:47;;;;;;;4.75;3.38;;;12.50;99.90;;;;;;4877721;29;20045;-49
2023/08/06 02:15:14;;;;;;;8.32;2.90;;;12.50;99.90;;;;;;4877882;29;20101;-49
2023/08/06 02:17:41;;;;;;;7.00;3.25;;;12.50;99.90;;;;;;4877845;29;20102;-47
2023/08/06 02:20:08;;;;;;;8.63;3.50;;;12.50;99.90;;;;;;4878090;29;20053;-47
2023/08/06 02:22:35;;;;;;;7.60;3.75;;;12.50;99.90;;;;;;4863558;29;20123;-48
2023/08/06 02:25:01;;;;;;;6.03;3.30;;;12.60;99.90;;;;;;4862494;29;20093;-48
2023/08/06 02:27:28;;;;;;;5.60;3.22;;;12.50;99.90;;;;;;4863205;29;20116;-49
2023/08/06 02:29:56;;;;;;;9.60;4.57;;;12.50;99.90;;;;;;4863812;29;20041;-47
2023/08/06 02:32:22;;;;;;;5.13;3.35;;;12.50;99.90;;;;;;4862278;29;20098;-52
2023/08/06 02:34:49;;;;;;;8.23;3.53;;;12.40;99.90;;;;;;4877850;29;20065;-51
2023/08/06 02:37:16;;;;;;;7.53;3.30;;;12.40;99.90;;;;;;4863782;29;20049;-49
2023/08/06 02:39:44;;;;;;;5.28;3.10;;;12.40;99.90;;;;;;4877881;29;20054;-51
2023/08/06 02:42:10;;;;;;;7.10;3.42;;;12.30;99.90;;;;;;4863817;29;20053;-51
2023/08/06 02:44:39;;;;;;;7.03;3.58;;;12.30;99.90;;;;;;4847117;29;20144;-52
2023/08/06 02:47:05;;;;;;;4.80;2.80;;;12.20;99.90;;;;;;4863477;29;20052;-48
2023/08/06 02:49:32;;;;;;;6.13;3.13;;;12.20;99.90;;;;;;4877776;29;20065;-51
2023/08/06 02:51:59;;;;;;;5.03;3.25;;;12.10;99.90;;;;;;4863370;29;20061;-49
2023/08/06 02:54:26;;;;;;;6.43;3.25;;;12.10;99.90;;;;;;4877699;29;20063;-51
2023/08/06 02:56:53;;;;;;;6.80;3.40;;;12.10;99.90;;;;;;4877343;29;20110;-47
2023/08/06 02:59:27;;;;;;;7.10;2.92;;;12.00;99.90;;;;;;4877700;29;20050;-57
2023/08/06 03:02:07;;;;;;;6.65;3.17;;;12.00;99.90;;;;;;4877131;29;20094;-55
2023/08/06 03:04:45;;;;;;;8.02;3.53;;;12.00;99.90;;;;;;4877256;29;20057;-57
2023/08/06 03:07:12;;;;;;;9.13;3.30;;;11.90;99.90;;;;;;4876875;29;20421;-48
2023/08/06 03:09:51;;;;;;;7.88;2.90;;;11.90;99.90;;;;;;4877142;29;20053;-49
2023/08/06 03:12:18;;;;;;;7.70;3.17;;;11.90;99.90;;;;;;4861688;29;20053;-50
2023/08/06 03:14:45;;;;;;;7.00;3.10;;;11.90;99.90;;;;;;4846063;29;20041;-47
2023/08/06 03:17:12;;;;;;;6.85;2.88;;;11.80;99.90;;;;;;4861348;29;20049;-50
2023/08/06 03:19:39;;;;;;;7.80;3.22;;;11.80;99.90;;;;;;4861709;29;20054;-48
2023/08/06 03:22:06;;;;;;;5.18;2.72;;;11.80;99.90;;;;;;4876332;29;20462;-53
2023/08/06 03:24:35;;;;;;;6.10;2.95;;;11.80;99.90;;;;;;4860791;29;20053;-48
2023/08/06 03:27:02;;;;;;;8.77;3.70;;;11.80;99.90;;;;;;4861349;29;20405;-48
2023/08/06 03:29:30;;;;;;;6.07;2.90;;;11.70;99.90;;;;;;4876484;29;20060;-47
2023/08/06 03:31:59;;;;;;;9.05;3.47;;;11.70;99.90;;;;;;4876593;29;20073;-53
2023/08/06 03:34:27;;;;;;;4.82;2.92;;;11.70;99.90;;;;;;4876748;29;20389;-50
2023/08/06 03:36:54;;;;;;;6.38;3.20;;;11.70;99.90;;;;;;4862136;29;20435;-49
2023/08/06 03:39:21;;;;;;;5.25;2.92;;;11.60;99.90;;;;;;4861001;29;20098;-53
2023/08/06 03:41:47;;;;;;;6.13;3.22;;;11.60;99.90;;;;;;4861965;29;20049;-52
2023/08/06 03:44:15;;;;;;;6.85;2.95;;;11.60;99.90;;;;;;4860945;29;20045;-56
2023/08/06 03:46:42;;;;;;;6.43;3.13;;;11.60;99.90;;;;;;4876114;29;20041;-53
2023/08/06 03:49:09;;;;;;;6.57;3.10;;;11.60;99.90;;;;;;4876090;29;20140;-50
2023/08/06 03:51:36;;;;;;;7.90;3.70;;;11.60;99.90;;;;;;4862045;29;20516;-51
2023/08/06 03:54:03;;;;;;;7.22;3.45;;;11.60;99.90;;;;;;4876081;29;20396;-51
2023/08/06 03:56:30;;;;;;;7.13;3.38;;;11.50;99.90;;;;;;4860821;29;20054;-52
2023/08/06 03:58:57;;;;;;;6.50;3.03;;;11.50;99.90;;;;;;4862061;29;20549;-53
2023/08/06 04:01:24;;;;;;;8.75;3.40;;;11.50;99.90;;;;;;4876475;29;20502;-53
2023/08/06 04:03:52;;;;;;;5.28;3.00;;;11.60;99.90;;;;;;4876295;29;20060;-56
2023/08/06 04:06:19;;;;;;;5.95;2.97;;;11.60;99.90;;;;;;4875978;29;20056;-51
2023/08/06 04:08:46;;;;;;;7.68;3.50;;;11.50;99.90;;;;;;4875533;29;20053;-49
2023/08/06 04:11:13;;;;;;;7.95;3.35;;;11.50;99.90;;;;;;4861657;29;20049;-56
2023/08/06 04:13:41;;;;;;;8.88;3.50;;;11.50;99.90;;;;;;4861691;29;20050;-51
2023/08/06 04:16:08;;;;;;;5.00;2.95;;;11.50;99.90;;;;;;4861748;29;20060;-52
2023/08/06 04:18:35;;;;;;;7.32;3.03;;;11.50;99.90;;;;;;4860195;29;20053;-49
2023/08/06 04:21:02;;;;;;;8.60;3.63;;;11.50;99.90;;;;;;4875952;29;20050;-51
2023/08/06 04:23:28;;;;;;;6.07;2.92;;;11.50;99.90;;;;;;4875540;29;20049;-57
2023/08/06 04:25:59;;;;;;;6.78;3.13;;;11.50;99.90;;;;;;4861048;29;20061;-57
2023/08/06 04:28:31;;;;;;;6.60;3.25;;;11.40;99.90;;;;;;4875263;29;20045;-51
2023/08/06 04:30:58;;;;;;;5.90;3.25;;;11.40;99.90;;;;;;4860036;29;20425;-50
2023/08/06 04:33:25;;;;;;;6.32;3.08;;;11.40;99.90;;;;;;4859793;29;20061;-54
2023/08/06 04:35:52;;;;;;;7.03;3.30;;;11.30;99.90;;;;;;4861340;29;20068;-50
2023/08/06 04:38:18;;;;;;;5.80;3.08;;;11.30;99.90;;;;;;4875817;29;20140;-57
2023/08/06 04:40:45;;;;;;;8.75;3.20;;;11.30;99.90;;;;;;4861766;29;20041;-49
2023/08/06 04:43:12;;;;;;;10.25;3.25;;;11.30;99.90;;;;;;4860097;29;20046;-52
2023/08/06 04:45:39;;;;;;;7.65;3.42;;;11.30;99.90;;;;;;4861803;29;20053;-52
2023/08/06 04:48:06;;;;;;;7.60;3.70;;;11.30;99.90;;;;;;4861245;29;20042;-53
2023/08/06 04:50:32;;;;;;;8.70;3.45;;;11.30;99.90;;;;;;4861610;29;20124;-48
2023/08/06 04:52:59;;;;;;;5.05;2.88;;;11.20;99.90;;;;;;4861164;29;20124;-54
2023/08/06 04:55:26;;;;;;;6.60;3.20;;;11.20;99.90;;;;;;4861379;29;20060;-55
2023/08/06 04:57:53;;;;;;;8.07;3.22;;;11.30;99.90;;;;;;4861062;29;20051;-51
2023/08/06 05:00:19;;;;;;;7.15;3.30;;;11.30;99.90;;;;;;4861546;29;20046;-53
2023/08/06 05:02:46;;;;;;;8.00;3.10;;;11.40;99.90;;;;;;4861377;29;20042;-56
2023/08/06 05:05:13;;;;;;;5.22;3.03;;;11.50;99.90;;;;;;4861232;29;20099;-52
2023/08/06 05:07:40;;;;;;;7.20;2.95;;;11.50;99.90;;;;;;4861473;29;20493;-54
2023/08/06 05:10:06;;;;;;;6.53;3.13;;;11.50;99.90;;;;;;4875210;29;20409;-51
2023/08/06 05:12:33;;;;;;;5.55;2.90;;;11.50;99.90;;;;;;4861216;29;20049;-52
2023/08/06 05:15:00;;;;;;;9.30;3.60;;;11.50;99.90;;;;;;4861337;29;20373;-55
2023/08/06 05:17:27;;;;;;;4.97;3.00;;;11.60;99.90;;;;;;4861206;29;20051;-52
2023/08/06 05:19:54;;;;;;;6.20;2.95;;;11.60;99.90;;;;;;4861351;29;20511;-52
2023/08/06 05:22:20;;;;;;;5.43;3.20;;;11.60;99.90;;;;;;4861597;29;20052;-53
2023/08/06 05:24:47;;;;;;;6.47;3.10;;;11.70;99.90;;;;;;4861125;29;20512;-53
2023/08/06 05:27:14;;;;;;;6.78;3.03;;;11.70;99.90;;;;;;4860662;29;20060;-55
2023/08/06 05:29:41;;;;;;;5.70;3.00;;;11.80;99.90;;;;;;4860851;29;20045;-53
2023/08/06 05:32:09;;;;;;;5.00;2.85;;;11.80;99.90;;;;;;4861196;29;20041;-50
2023/08/06 05:34:35;;;;;;;6.47;2.85;;;12.00;99.90;;;;;;4860622;29;20049;-52
2023/08/06 05:37:02;;;;;;;7.97;3.05;;;12.00;99.90;;;;;;4860956;29;20358;-55
2023/08/06 05:39:29;;;;;;;8.25;2.85;;;12.20;99.90;;;;;;4860977;29;20084;-54
2023/08/06 05:41:56;;;;;;;5.82;3.05;;;12.20;99.90;;;;;;4860899;29;20050;-51
2023/08/06 05:44:22;;;;;;;7.15;2.85;;;12.30;99.90;;;;;;4860590;29;20052;-55
2023/08/06 05:46:49;;;;;;;7.35;3.08;;;12.30;99.90;;;;;;4862453;29;20060;-56
2023/08/06 05:49:16;;;;;;;4.50;2.88;;;12.30;99.90;;;;;;4864398;29;20049;-52
2023/08/06 05:51:43;;;;;;;5.18;2.85;;;12.40;99.90;;;;;;4862862;29;20042;-53
2023/08/06 05:54:10;;;;;;;7.50;3.13;;;12.40;99.90;;;;;;4864978;29;20443;-57
2023/08/06 05:56:36;;;;;;;7.30;3.10;;;12.30;99.90;;;;;;4864424;29;20085;-54
2023/08/06 05:59:03;;;;;;;5.43;3.10;;;12.30;99.90;;;;;;4864425;29;20053;-53
2023/08/06 06:01:30;;;;;;;7.45;3.17;;;12.20;99.90;;;;;;4864304;29;20087;-53
2023/08/06 06:03:57;;;;;;;4.65;2.65;;;12.20;99.90;;;;;;4864699;29;20061;-55
2023/08/06 06:06:23;;;;;;;10.52;2.95;;;12.20;99.90;;;;;;4878481;29;20050;-51
2023/08/06 06:08:50;;;;;;;7.43;2.90;;;12.10;99.90;;;;;;4863881;29;20045;-52
2023/08/06 06:11:19;;;;;;;7.00;3.20;;;12.10;99.90;;;;;;4864058;29;20045;-51
2023/08/06 06:13:46;;;;;;;6.03;3.20;;;12.10;99.90;;;;;;4864176;29;20060;-52
2023/08/06 06:16:12;;;;;;;6.43;3.10;;;12.20;99.90;;;;;;4864037;29;20474;-51
2023/08/06 06:18:39;;;;;;;7.00;2.80;;;12.20;99.90;;;;;;4864296;29;20474;-54
2023/08/06 06:21:06;;;;;;;6.47;3.03;;;12.20;99.90;;;;;;4863832;29;20490;-53
2023/08/06 06:23:33;;;;;;;5.10;2.88;;;12.20;99.90;;;;;;4864218;29;20056;-55
2023/08/06 06:26:00;;;;;;;8.43;3.30;;;12.30;99.90;;;;;;4864230;29;20038;-53
2023/08/06 06:28:26;;;;;;;5.47;2.80;;;12.30;99.90;;;;;;4863977;29;20045;-52
2023/08/06 06:30:53;;;;;;;4.82;2.92;;;12.30;99.90;;;;;;4863954;29;20497;-54
2023/08/06 06:33:20;;;;;;;5.78;2.95;;;12.40;99.90;;;;;;4864044;29;20444;-52
2023/08/06 06:35:47;;;;;;;4.88;3.00;;;12.40;99.90;;;;;;4864018;29;20073;-54
2023/08/06 06:38:13;;;;;;;5.90;3.22;;;12.50;99.90;;;;;;4863292;29;20065;-55
2023/08/06 06:40:40;;;;;;;5.35;2.53;;;12.50;99.90;;;;;;4863955;29;20060;-52
2023/08/06 06:43:07;;;;;;;7.00;3.00;;;12.50;99.90;;;;;;4863337;29;20050;-52
2023/08/06 06:45:34;;;;;;;4.70;2.85;;;12.50;99.90;;;;;;4863835;29;20504;-50
2023/08/06 06:48:01;;;;;;;9.75;2.72;;;12.60;99.90;;;;;;4863698;29;20102;-52
2023/08/06 06:50:27;;;;;;;6.57;2.85;;;12.60;99.90;;;;;;4877262;29;20045;-49
2023/08/06 06:52:54;;;;;;;7.00;3.20;;;12.60;99.90;;;;;;4863565;29;20462;-53
2023/08/06 06:55:21;;;;;;;4.53;2.80;;;12.70;99.90;;;;;;4863184;29;20053;-52
2023/08/06 06:57:48;;;;;;;6.40;3.08;;;12.70;99.90;;;;;;4863148;29;20038;-53
2023/08/06 07:00:14;;;;;;;5.57;3.25;;;12.80;99.90;;;;;;4863366;29;20037;-55
2023/08/06 07:02:41;;;;;;;3.88;2.60;;;12.80;99.90;;;;;;4862952;29;20386;-53
2023/08/06 07:05:09;;;;;;;5.38;2.65;;;12.90;99.90;;;;;;4863387;29;20081;-56
2023/08/06 07:07:37;;;;;;;4.18;2.60;;;12.90;99.90;;;;;;4863069;29;20061;-56
2023/08/06 07:10:04;;;;;;;4.38;2.55;;;13.00;99.90;;;;;;4862884;29;20128;-52
2023/08/06 07:12:30;;;;;;;5.85;2.65;;;13.10;99.90;;;;;;4862950;29;20046;-52
2023/08/06 07:14:57;;;;;;;5.07;2.60;;;13.10;99.90;;;;;;4863278;29;20084;-49
2023/08/06 07:17:24;;;;;;;3.92;2.70;;;13.20;99.90;;;;;;4861316;29;20049;-53
2023/08/06 07:19:51;;;;;;;6.55;2.70;;;13.20;99.90;;;;;;4863220;29;20487;-54
2023/08/06 07:22:18;;;;;;;5.78;2.90;;;13.30;99.90;;;;;;4863241;29;20417;-53
2023/08/06 07:24:45;;;;;;;5.82;2.88;;;13.30;99.90;;;;;;4862917;29;20393;-50
2023/08/06 07:27:11;;;;;;;5.55;2.35;;;13.30;99.90;;;;;;4862992;29;20041;-52
2023/08/06 07:29:38;;;;;;;5.43;2.50;;;13.40;99.90;;;;;;4863243;29;20038;-53
2023/08/06 07:32:05;;;;;;;4.10;2.30;;;13.50;99.90;;;;;;4862890;29;20042;-53
2023/08/06 07:34:32;;;;;;;5.53;2.88;;;13.60;99.90;;;;;;4862660;29;20587;-54
2023/08/06 07:36:59;;;;;;;5.93;2.92;;;13.60;99.90;;;;;;4862626;29;20179;-55
2023/08/06 07:39:28;;;;;;;5.38;2.83;;;13.70;99.90;;;;;;4862833;29;20054;-52
2023/08/06 07:41:55;;;;;;;4.75;2.47;;;13.70;99.90;;;;;;4862886;29;20045;-55
2023/08/06 07:44:22;;;;;;;6.18;2.65;;;13.80;99.90;;;;;;4860962;29;20041;-54
2023/08/06 07:46:48;;;;;;;4.72;2.45;;;13.80;99.90;;;;;;4862081;29;20421;-55
2023/08/06 07:49:15;;;;;;;6.82;2.58;;;13.90;99.90;;;;;;4862379;29;20101;-52
2023/08/06 07:51:42;;;;;;;3.58;2.40;;;13.90;99.90;;;;;;4862657;29;20048;-54
2023/08/06 07:54:09;;;;;;;4.95;2.15;;;13.90;99.90;;;;;;4862494;29;20038;-55
2023/08/06 07:56:36;;;;;;;5.40;2.30;;;14.00;99.90;;;;;;4862413;29;20058;-55
2023/08/06 07:59:03;;;;;;;3.45;2.13;;;14.00;99.90;;;;;;4862471;29;20053;-52
2023/08/06 08:01:30;;;;;;;8.00;2.42;;;14.10;99.90;;;;;;4862531;29;20049;-54
2023/08/06 08:03:57;;;;;;;4.45;2.25;;;14.20;99.90;;;;;;4862241;29;20495;-53
2023/08/06 08:06:23;;;;;;;4.47;2.30;;;14.20;99.90;;;;;;4862253;29;20508;-55
2023/08/06 08:08:51;;;;;;;5.72;2.00;;;14.20;99.90;;;;;;4861216;29;20216;-53
2023/08/06 08:11:18;;;;;;;5.03;2.25;;;14.30;99.90;;;;;;4862824;29;20128;-53
2023/08/06 08:13:45;;;;;;;4.32;2.25;;;14.30;99.90;;;;;;4844783;29;20039;-50
2023/08/06 08:16:12;;;;;;;4.53;2.13;;;14.40;99.90;;;;;;4825361;29;20042;-54
2023/08/06 08:18:38;;;;;;;4.65;2.30;;;14.50;99.90;;;;;;4839024;29;20052;-48
2023/08/06 08:21:05;;;;;;;5.50;1.98;;;14.40;99.90;;;;;;4824993;29;20487;-53
2023/08/06 08:23:32;;;;;;;3.40;1.90;;;14.50;99.90;;;;;;4825453;29;20053;-54
2023/08/06 08:25:59;;;;;;;3.78;1.98;;;14.60;99.90;;;;;;4838994;29;20561;-54
2023/08/06 08:28:26;;;;;;;4.30;1.98;;;14.70;99.90;;;;;;4825777;29;20475;-56
2023/08/06 08:30:53;;;;;;;5.25;2.10;;;14.70;99.90;;;;;;4838632;29;20050;-56
2023/08/06 08:33:20;;;;;;;3.95;1.83;;;14.70;99.90;;;;;;4824659;29;20050;-53
2023/08/06 08:35:47;;;;;;;5.43;1.90;;;14.70;99.90;;;;;;4825078;29;20050;-55
2023/08/06 08:38:14;;;;;;;4.13;2.03;;;14.80;99.90;;;;;;4825076;29;20139;-52
2023/08/06 08:40:40;;;;;;;5.10;2.20;;;14.80;99.90;;;;;;4825132;29;20099;-54
2023/08/06 08:43:07;;;;;;;5.38;2.17;;;14.90;99.90;;;;;;4824734;29;20439;-51
2023/08/06 08:45:34;;;;;;;3.88;1.92;;;15.00;99.90;;;;;;4824833;29;20483;-57
2023/08/06 08:48:01;;;;;;;4.20;1.83;;;15.10;99.90;;;;;;4824858;29;20133;-54
2023/08/06 08:50:27;;;;;;;5.32;2.38;;;15.10;99.90;;;;;;4832087;29;20086;-51
2023/08/06 08:52:54;;;;;;;4.65;1.85;;;15.20;99.90;;;;;;4842673;29;20049;-55
2023/08/06 08:55:21;;;;;;;4.32;1.90;;;15.30;99.90;;;;;;4842655;29;20062;-50
2023/08/06 08:57:48;;;;;;;7.85;2.00;;;15.40;99.90;;;;;;4842433;29;20050;-53
2023/08/06 09:00:15;;;;;;;3.13;1.85;;;15.50;99.90;;;;;;4842474;29;20121;-53
2023/08/06 09:02:42;;;;;;;5.88;1.80;;;15.60;99.90;;;;;;4842577;29;20054;-53
2023/08/06 09:05:08;;;;;;;6.75;2.13;;;15.60;99.90;;;;;;4842558;29;20545;-53
2023/08/06 09:07:35;;;;;;;3.13;1.90;;;15.70;99.90;;;;;;4842304;29;20538;-48
2023/08/06 09:10:03;;;;;;;3.08;1.90;;;15.60;99.90;;;;;;4843024;29;20082;-54
2023/08/06 09:12:30;;;;;;;4.53;2.08;;;15.60;99.90;;;;;;4842613;29;20386;-55
2023/08/06 09:14:57;;;;;;;3.88;1.90;;;15.60;99.90;;;;;;4842727;29;20462;-51
2023/08/06 09:17:24;;;;;;;5.95;1.80;;;15.60;99.90;;;;;;4842628;29;20466;-53
2023/08/06 09:19:51;;;;;;;2.50;1.80;;;15.80;99.90;;;;;;4842604;29;20081;-55
2023/08/06 09:22:18;;;;;;;3.90;1.90;;;15.90;99.90;;;;;;4842243;29;20046;-52
2023/08/06 09:24:44;;;;;;;3.10;1.90;;;16.10;99.90;;;;;;4842173;29;20069;-54
2023/08/06 09:27:12;;;;;;;4.05;1.80;;;16.10;99.90;;;;;;4840742;29;20244;-54
2023/08/06 09:29:39;;;;;;;5.63;1.60;;;16.10;99.90;;;;;;4841712;29;20050;-52
2023/08/06 09:32:06;;;;;;;3.63;1.70;;;16.20;99.90;;;;;;4842394;29;20038;-54
2023/08/06 09:34:33;;;;;;;4.68;1.90;;;16.30;99.80;;;;;;4841489;29;20118;-51
2023/08/06 09:36:59;;;;;;;4.68;1.70;;;16.30;99.80;;;;;;4841863;29;20065;-48
2023/08/06 09:39:26;;;;;;;3.85;1.42;;;16.40;99.60;;;;;;4842174;29;20061;-52
2023/08/06 09:41:53;;;;;;;3.47;1.48;;;16.50;99.80;;;;;;4841861;29;20370;-57
2023/08/06 09:44:21;;;;;;;5.55;1.80;;;16.50;99.90;;;;;;4842164;29;20050;-54
2023/08/06 09:46:48;;;;;;;4.53;2.00;;;16.60;99.80;;;;;;4841341;29;20120;-58
2023/08/06 09:49:15;;;;;;;2.92;1.40;;;16.70;99.80;;;;;;4842047;29;20042;-57
2023/08/06 09:51:43;;;;;;;2.55;1.45;;;16.90;99.30;;;;;;4841504;29;20074;-54
2023/08/06 09:54:12;;;;;;;2.90;1.40;;;17.00;98.30;;;;;;4841852;29;20420;-54
2023/08/06 09:56:53;;;;;;;3.65;1.60;;;17.10;97.80;;;;;;4841274;29;20050;-54
2023/08/06 09:59:20;;;;;;;4.43;1.70;;;17.10;98.00;;;;;;4841888;29;20410;-51
2023/08/06 10:01:46;;;;;;;4.80;2.00;;;17.20;98.80;;;;;;4841689;29;20050;-56
2023/08/06 10:04:15;;;;;;;3.72;1.40;;;17.30;97.60;;;;;;4841791;29;20045;-54
2023/08/06 10:06:49;;;;;;;2.25;1.35;;;17.50;97.30;;;;;;4841540;29;20042;-51
2023/08/06 10:09:16;;;;;;;4.00;1.48;;;17.60;95.80;;;;;;4841228;29;20081;-54
2023/08/06 10:11:47;;;;;;;2.28;1.40;;;17.70;96.40;;;;;;4841749;29;20042;-55
2023/08/06 10:14:14;;;;;;;3.03;1.48;;;17.90;97.50;;;;;;4841888;29;20504;-53
2023/08/06 10:16:41;;;;;;;2.50;1.45;;;18.00;96.90;;;;;;4840937;29;20050;-55
2023/08/06 10:19:08;;;;;;;3.20;1.60;;;18.20;97.40;;;;;;4841657;29;20050;-55
2023/08/06 10:21:34;;;;;;;4.43;1.60;;;18.20;96.10;;;;;;4839938;29;20086;-57
2023/08/06 10:24:03;;;;;;;2.00;1.33;;;18.30;96.30;;;;;;4841543;29;20557;-52
2023/08/06 10:26:30;;;;;;;3.95;1.83;;;18.30;96.00;;;;;;4841473;29;20050;-56
2023/08/06 10:28:57;;;;;;;2.67;1.67;;;18.10;96.30;;;;;;4841222;29;20512;-52
2023/08/06 10:31:24;;;;;;;3.80;1.52;;;18.00;96.90;;;;;;4841367;29;20112;-49
2023/08/06 10:33:50;;;;;;;2.80;1.40;;;18.10;95.90;;;;;;4858531;29;20118;-53
2023/08/06 10:36:17;;;;;;;3.70;1.60;;;18.20;96.20;;;;;;4844718;29;20058;-50
2023/08/06 10:38:44;;;;;;;3.67;1.60;;;18.20;96.30;;;;;;4844798;29;20061;-52
2023/08/06 10:41:11;;;;;;;3.42;1.70;;;18.40;96.40;;;;;;4852659;29;20041;-52
2023/08/06 10:43:38;;;;;;;3.97;1.67;;;18.30;96.20;;;;;;4844802;29;20046;-54
2023/08/06 10:46:05;;;;;;;3.60;1.58;;;18.20;97.00;;;;;;4844842;29;20065;-53
2023/08/06 10:48:32;;;;;;;3.65;1.75;;;18.00;97.60;;;;;;4846203;29;20068;-55
2023/08/06 10:50:59;;;;;;;4.50;1.92;;;17.90;97.30;;;;;;4844780;29;20125;-56
2023/08/06 10:53:25;;;;;;;3.00;1.65;;;17.80;97.50;;;;;;4844738;29;20122;-54
2023/08/06 10:55:52;;;;;;;3.65;1.50;;;17.90;97.90;;;;;;4844119;29;20505;-52
2023/08/06 10:58:19;;;;;;;3.65;1.90;;;18.00;97.60;;;;;;4844488;29;20073;-56
2023/08/06 11:00:46;;;;;;;2.75;1.80;;;17.90;98.00;;;;;;4860653;29;20034;-54
2023/08/06 11:03:13;;;;;;;3.70;1.80;;;17.90;98.30;;;;;;4844426;29;20057;-55
2023/08/06 11:05:40;;;;;;;2.97;1.42;;;17.70;98.20;;;;;;4844423;29;20046;-54
2023/08/06 11:08:06;;;;;;;3.60;1.80;;;17.80;98.30;;;;;;4837739;29;20502;-57
2023/08/06 11:10:33;;;;;;;3.17;1.70;;;17.70;98.40;;;;;;4844148;29;20042;-53
2023/08/06 11:13:00;;;;;;;3.17;1.85;;;17.60;98.70;;;;;;4843589;29;20402;-56
2023/08/06 11:15:27;;;;;;;4.90;2.00;;;17.80;99.40;;;;;;4844312;29;20105;-51
2023/08/06 11:17:54;;;;;;;4.90;1.70;;;17.90;99.00;;;;;;4843589;29;20046;-50
2023/08/06 11:20:22;;;;;;;4.72;1.60;;;18.00;98.70;;;;;;4844067;29;20099;-52
2023/08/06 11:22:49;;;;;;;4.00;1.98;;;17.90;98.90;;;;;;4843976;29;20149;-48
2023/08/06 11:25:15;;;;;;;4.25;1.80;;;17.90;98.50;;;;;;4844117;29;20050;-49
2023/08/06 11:27:42;;;;;;;3.53;1.83;;;17.80;98.40;;;;;;4858007;29;20513;-57
2023/08/06 11:30:10;;;;;;;4.63;1.75;;;17.70;98.80;;;;;;4843723;29;20050;-50
2023/08/06 11:32:37;;;;;;;4.97;1.92;;;17.50;99.10;;;;;;4836241;29;20125;-51
2023/08/06 11:35:04;;;;;;;6.88;2.40;;;17.60;99.20;;;;;;4837233;29;20106;-47
2023/08/06 11:37:31;;;;;;;5.13;2.08;;;17.60;99.40;;;;;;4843637;29;20038;-54
2023/08/06 11:40:00;;;;;;;3.80;2.20;;;17.50;99.00;;;;;;4843931;29;20102;-51
2023/08/06 11:42:27;;;;;;;4.43;2.50;;;17.60;99.10;;;;;;4843513;29;20085;-55
2023/08/06 11:44:54;;;;;;;7.55;2.20;;;17.80;99.10;;;;;;4842963;29;20046;-55
2023/08/06 11:47:21;;;;;;;4.55;1.90;;;18.10;99.10;;;;;;4843517;29;20049;-54
2023/08/06 11:49:48;;;;;;;3.28;2.35;;;18.20;99.10;;;;;;4843144;29;20539;-55
2023/08/06 11:52:15;;;;;;;3.40;2.10;;;18.20;98.70;;;;;;4843908;29;20077;-49
2023/08/06 11:54:42;;;;;;;4.40;2.10;;;18.10;98.70;;;;;;4843479;29;20038;-53
2023/08/06 11:57:08;;;;;;;3.00;1.98;;;18.00;98.90;;;;;;4842822;29;20116;-49
2023/08/06 11:59:35;;;;;;;3.53;1.98;;;18.00;98.60;;;;;;4843793;29;20132;-49
2023/08/06 12:02:02;;;;;;;4.95;2.13;;;18.00;98.70;;;;;;4842885;29;20038;-54
2023/08/06 12:04:29;;;;;;;4.47;1.95;;;17.90;98.70;;;;;;4843466;29;20459;-50
2023/08/06 12:06:56;;;;;;;5.07;1.73;;;17.90;98.70;;;;;;4856976;29;20053;-51
2023/08/06 12:09:23;;;;;;;3.60;1.60;;;18.00;98.80;;;;;;4843443;29;20050;-51
2023/08/06 12:11:49;;;;;;;3.75;1.90;;;18.00;99.00;;;;;;4843489;29;20061;-51
2023/08/06 12:14:16;;;;;;;3.42;1.70;;;18.10;99.10;;;;;;4842945;29;20098;-58
2023/08/06 12:16:43;;;;;;;3.10;1.60;;;18.10;98.70;;;;;;4837125;29;20046;-56
2023/08/06 12:19:10;;;;;;;4.47;1.67;;;18.10;98.90;;;;;;4842929;29;20554;-47
2023/08/06 12:21:36;;;;;;;2.65;1.42;;;18.00;99.00;;;;;;4842417;29;20061;-49
2023/08/06 12:24:03;;;;;;;4.20;1.83;;;18.10;99.30;;;;;;4857093;29;20046;-53
2023/08/06 12:26:30;;;;;;;4.53;1.73;;;18.20;99.20;;;;;;4842546;29;20045;-55
2023/08/06 12:28:57;;;;;;;3.53;1.73;;;18.30;99.10;;;;;;4841702;29;20050;-56
2023/08/06 12:31:24;;;;;;;2.47;1.38;;;18.50;98.80;;;;;;4842231;29;20512;-59
2023/08/06 12:33:50;;;;;;;2.83;1.63;;;18.50;97.70;;;;;;4842749;29;20072;-55
2023/08/06 12:36:17;;;;;;;3.13;1.40;;;18.50;97.40;;;;;;4842156;29;20038;-47
2023/08/06 12:38:44;;;;;;;2.42;1.40;;;18.40;97.50;;;;;;4842677;29;20041;-54
2023/08/06 12:41:11;;;;;;;3.28;1.38;;;18.40;97.60;;;;;;4842858;29;20050;-47
2023/08/06 12:43:38;;;;;;;3.28;1.60;;;18.40;97.80;;;;;;4842564;29;20509;-50